Time;durP1;ratioP1;P1;durP2;ratioP2;P2;SDS_P1;SDS_P2;PMS_P1;PMS_P2;Temp;Humidity;BMP_temperature;BMP_pressure;BME280_temperature;BME280_humidity;BME280_pressure;Samples;Min_cycle;Max_cycle;Signal;HPM_P1;HPM_P2
2024/03/23 00:02:26;;;;;;;22.00;12.50;;;8.90;89.50;;;;;;5110247;28;20020;-64
2024/03/23 00:04:53;;;;;;;22.55;11.93;;;8.80;89.40;;;;;;5101815;28;20034;-64
2024/03/23 00:07:19;;;;;;;19.17;9.88;;;8.80;89.40;;;;;;5112591;28;20035;-64
2024/03/23 00:09:47;;;;;;;19.85;10.35;;;8.90;99.50;;;;;;5113490;28;20076;-64
2024/03/23 00:12:14;;;;;;;19.08;10.45;;;11.30;90.70;;;;;;5111559;28;20070;-64
2024/03/23 00:14:41;;;;;;;17.45;9.57;;;8.80;90.30;;;;;;5103037;28;20096;-64
2024/03/23 00:17:08;;;;;;;19.25;10.18;;;8.80;90.40;;;;;;5108831;28;20061;-64
2024/03/23 00:19:35;;;;;;;22.35;11.77;;;8.80;90.50;;;;;;5110982;28;20127;-64
2024/03/23 00:22:04;;;;;;;21.77;11.82;;;8.80;90.50;;;;;;5109748;28;20087;-64
2024/03/23 00:24:31;;;;;;;;;;;8.90;90.30;;;;;;5117989;28;20028;-66
2024/03/23 00:26:59;;;;;;;22.20;10.10;;;8.80;90.50;;;;;;5117801;28;20208;-64
2024/03/23 00:29:26;;;;;;;24.23;11.40;;;8.90;93.10;;;;;;5110101;28;20039;-63
2024/03/23 00:31:53;;;;;;;23.55;11.48;;;8.70;99.60;;;;;;5116859;28;20027;-64
2024/03/23 00:34:20;;;;;;;21.13;10.60;;;8.80;90.30;;;;;;5117628;28;20050;-64
2024/03/23 00:36:46;;;;;;;22.10;10.43;;;9.00;99.90;;;;;;5118972;28;20059;-64
2024/03/23 00:39:14;;;;;;;21.88;10.32;;;9.00;99.80;;;;;;5119056;28;20098;-63
2024/03/23 00:41:41;;;;;;;20.77;11.05;;;8.80;99.90;;;;;;5115612;28;20229;-64
2024/03/23 00:44:07;;;;;;;20.30;10.85;;;8.80;90.20;;;;;;5114730;28;20090;-64
2024/03/23 00:46:34;;;;;;;22.45;11.70;;;8.80;99.90;;;;;;5112739;28;20046;-63
2024/03/23 00:49:02;;;;;;;19.13;10.90;;;8.80;99.90;;;;;;5107348;28;20058;-66
2024/03/23 00:51:29;;;;;;;21.23;10.70;;;8.80;90.50;;;;;;5105643;28;20026;-67
2024/03/23 00:53:56;;;;;;;23.25;11.18;;;8.90;99.90;;;;;;5121948;28;20031;-65
2024/03/23 00:56:22;;;;;;;25.77;11.60;;;9.00;99.90;;;;;;5101376;28;20029;-65
2024/03/23 00:58:49;;;;;;;22.00;11.18;;;8.60;90.60;;;;;;5112126;28;20031;-66
2024/03/23 01:01:16;;;;;;;21.63;10.80;;;;;;;;;;5119915;28;20138;-66
2024/03/23 01:03:46;;;;;;;21.70;12.57;;;8.60;99.90;;;;;;5105327;28;20030;-66
2024/03/23 01:06:12;;;;;;;25.13;11.30;;;8.40;91.30;;;;;;5112306;28;20027;-66
2024/03/23 01:08:38;;;;;;;24.48;12.18;;;8.30;99.90;;;;;;5109908;28;20380;-66
2024/03/23 01:11:04;;;;;;;22.65;11.35;;;8.20;91.90;;;;;;5120518;28;20028;-65
2024/03/23 01:13:32;;;;;;;20.10;10.80;;;8.00;99.90;;;;;;5115525;28;20088;-66
2024/03/23 01:16:01;;;;;;;18.83;10.73;;;8.00;92.50;;;;;;5104816;28;20126;-67
2024/03/23 01:18:27;;;;;;;19.08;10.98;;;8.00;99.90;;;;;;5112419;28;20062;-66
2024/03/23 01:20:52;;;;;;;19.20;11.40;;;7.90;99.90;;;;;;5111153;28;20327;-65
2024/03/23 01:23:18;;;;;;;21.23;10.20;;;8.00;93.10;;;;;;5113842;28;20020;-66
2024/03/23 01:25:44;;;;;;;16.70;9.85;;;;;;;;;;5119649;28;20042;-66
2024/03/23 01:28:10;;;;;;;23.35;10.73;;;;;;;;;;5115040;28;20269;-66
2024/03/23 01:30:36;;;;;;;18.08;9.85;;;7.90;93.40;;;;;;5104223;28;20077;-66
2024/03/23 01:33:05;;;;;;;18.17;9.13;;;7.80;99.90;;;;;;5116971;28;20027;-66
2024/03/23 01:35:31;;;;;;;19.17;9.27;;;;;;;;;;5109739;28;20040;-66
2024/03/23 01:37:56;;;;;;;20.98;10.60;;;7.90;99.90;;;;;;5102609;28;20047;-67
2024/03/23 01:40:22;;;;;;;21.85;10.77;;;8.20;99.90;;;;;;5109467;28;20036;-67
2024/03/23 01:42:58;;;;;;;20.30;10.45;;;;;;;;;;5100740;28;20095;-67
2024/03/23 01:45:23;;;;;;;23.30;11.25;;;7.90;99.90;;;;;;5100087;28;20035;-67
2024/03/23 01:47:52;;;;;;;17.52;10.63;;;7.90;99.90;;;;;;5107185;28;20023;-67
2024/03/23 01:50:19;;;;;;;;;;;7.80;94.60;;;;;;5121130;28;20226;-67
2024/03/23 01:52:45;;;;;;;20.40;9.77;;;7.70;99.90;;;;;;5120466;28;19984;-67
2024/03/23 01:55:12;;;;;;;22.27;11.18;;;7.70;99.90;;;;;;5109615;28;20035;-68
2024/03/23 01:57:37;;;;;;;21.52;9.75;;;7.80;99.90;;;;;;5106322;28;20020;-69
2024/03/23 02:00:04;;;;;;;17.88;9.93;;;7.80;94.20;;;;;;5108811;28;20100;-69
2024/03/23 02:02:29;;;;;;;20.83;10.68;;;7.90;98.70;;;;;;5105590;28;20039;-69
2024/03/23 02:04:55;;;;;;;21.55;10.43;;;8.00;99.90;;;;;;5095457;28;20216;-69
2024/03/23 02:07:21;;;;;;;18.95;10.32;;;7.90;99.90;;;;;;5111629;28;20036;-69
2024/03/23 02:09:46;;;;;;;19.80;9.35;;;7.90;99.90;;;;;;5112189;28;20035;-69
2024/03/23 02:12:12;;;;;;;17.30;10.32;;;7.80;99.90;;;;;;5117798;28;20347;-69
2024/03/23 02:14:38;;;;;;;17.52;9.40;;;8.20;99.90;;;;;;5109960;28;20031;-69
2024/03/23 02:17:03;;;;;;;18.77;9.43;;;8.00;99.90;;;;;;5108489;28;20044;-69
2024/03/23 02:19:32;;;;;;;18.63;9.50;;;7.90;99.90;;;;;;5111533;28;20062;-70
2024/03/23 02:21:57;;;;;;;19.20;10.75;;;8.00;99.90;;;;;;5099085;28;20040;-68
2024/03/23 02:24:23;;;;;;;18.58;10.73;;;8.10;99.90;;;;;;5102490;28;20019;-68
2024/03/23 02:26:48;;;;;;;20.17;10.50;;;8.10;99.90;;;;;;5110922;28;20088;-68
2024/03/23 02:29:14;;;;;;;18.25;10.48;;;8.10;99.90;;;;;;5117432;28;20036;-68
2024/03/23 02:31:42;;;;;;;15.88;10.48;;;8.50;99.90;;;;;;5113968;28;20367;-68
2024/03/23 02:34:07;;;;;;;15.55;9.88;;;8.40;99.90;;;;;;5107625;28;20043;-68
2024/03/23 02:36:33;;;;;;;15.90;9.85;;;8.40;99.90;;;;;;5093123;28;20081;-68
2024/03/23 02:38:59;;;;;;;20.30;10.40;;;8.50;99.90;;;;;;5101366;28;20028;-68
2024/03/23 02:41:24;;;;;;;16.77;10.00;;;8.40;99.90;;;;;;5100676;28;20079;-68
2024/03/23 02:43:50;;;;;;;19.73;11.07;;;;;;;;;;5108349;28;20193;-68
2024/03/23 02:46:16;;;;;;;16.27;9.93;;;8.50;99.90;;;;;;5117712;28;20378;-68
2024/03/23 02:48:42;;;;;;;17.35;9.98;;;;;;;;;;5113704;28;20328;-68
2024/03/23 02:51:08;;;;;;;18.38;10.00;;;;;;;;;;5103202;28;20036;-68
2024/03/23 02:53:34;;;;;;;17.02;10.68;;;8.70;93.40;;;;;;5107173;28;20091;-68
2024/03/23 02:56:00;;;;;;;16.20;10.50;;;8.80;93.50;;;;;;5115531;28;20046;-68
2024/03/23 02:58:26;;;;;;;17.92;10.23;;;8.80;93.50;;;;;;5119829;28;20105;-68
2024/03/23 03:00:51;;;;;;;16.25;11.05;;;8.90;93.50;;;;;;5102781;28;20032;-68
2024/03/23 03:03:17;;;;;;;19.88;11.52;;;8.90;99.90;;;;;;5111303;28;20031;-68
2024/03/23 03:05:43;;;;;;;24.33;13.15;;;8.90;99.90;;;;;;5111366;28;20051;-68
2024/03/23 03:08:09;;;;;;;17.65;11.57;;;9.00;99.90;;;;;;5112439;28;20084;-68
2024/03/23 03:10:36;;;;;;;15.57;10.75;;;9.00;99.90;;;;;;5114430;28;20050;-69
2024/03/23 03:13:02;;;;;;;19.02;11.02;;;9.00;99.90;;;;;;5114162;27;20031;-68
2024/03/23 03:15:28;;;;;;;18.15;9.93;;;8.90;99.90;;;;;;5102548;28;20039;-68
2024/03/23 03:17:54;;;;;;;15.60;10.38;;;9.10;99.90;;;;;;5110567;28;20031;-67
2024/03/23 03:20:21;;;;;;;20.40;10.77;;;9.10;99.90;;;;;;5109113;28;20028;-69
2024/03/23 03:22:47;;;;;;;22.08;10.75;;;9.20;99.90;;;;;;5102558;28;20036;-68
2024/03/23 03:25:13;;;;;;;17.65;10.45;;;9.30;99.90;;;;;;5107455;28;20079;-70
2024/03/23 03:27:39;;;;;;;20.05;10.68;;;9.10;99.90;;;;;;5101227;28;20092;-70
2024/03/23 03:30:08;;;;;;;18.73;10.32;;;9.20;99.90;;;;;;5100521;28;20270;-71
2024/03/23 03:32:34;;;;;;;17.40;10.35;;;9.00;99.90;;;;;;5115580;28;20036;-71
2024/03/23 03:35:02;;;;;;;14.50;9.52;;;9.40;99.90;;;;;;5105828;28;20039;-71
2024/03/23 03:37:27;;;;;;;17.60;9.17;;;9.40;92.10;;;;;;5110588;28;20046;-67
2024/03/23 03:39:53;;;;;;;17.55;10.48;;;9.40;91.90;;;;;;5109868;28;20059;-68
2024/03/23 03:42:20;;;;;;;16.80;10.88;;;9.50;91.60;;;;;;5111425;28;20043;-68
2024/03/23 03:44:46;;;;;;;21.75;10.45;;;9.50;99.90;;;;;;5117129;28;20196;-67
2024/03/23 03:47:11;;;;;;;18.65;10.98;;;9.50;91.20;;;;;;5112362;28;20032;-67
2024/03/23 03:49:37;;;;;;;16.50;10.88;;;9.40;99.90;;;;;;5102264;28;20035;-66
2024/03/23 03:52:03;;;;;;;15.73;9.98;;;9.60;99.90;;;;;;5110430;28;20348;-71
2024/03/23 03:54:29;;;;;;;16.58;10.98;;;;;;;;;;5104134;28;20032;-67
2024/03/23 03:56:55;;;;;;;16.63;10.48;;;9.50;91.10;;;;;;5109128;28;20027;-67
2024/03/23 03:59:20;;;;;;;18.38;10.40;;;9.20;99.90;;;;;;5105543;28;20164;-68
2024/03/23 04:01:46;;;;;;;15.57;10.20;;;9.40;99.90;;;;;;5109038;28;20036;-68
2024/03/23 04:04:13;;;;;;;13.68;9.82;;;9.70;99.90;;;;;;5112026;28;20019;-68
2024/03/23 04:06:39;;;;;;;16.65;10.88;;;9.60;91.50;;;;;;5113644;28;20055;-67
2024/03/23 04:09:06;;;;;;;14.75;9.90;;;9.90;99.90;;;;;;5113975;28;20028;-68
2024/03/23 04:11:32;;;;;;;15.30;9.32;;;9.90;90.80;;;;;;5115689;28;20028;-69
2024/03/23 04:13:57;;;;;;;13.25;8.20;;;10.10;99.90;;;;;;5118617;28;20027;-68
2024/03/23 04:16:34;;;;;;;14.82;9.55;;;10.10;90.10;;;;;;5122354;28;20043;-68
2024/03/23 04:19:00;;;;;;;16.08;9.85;;;10.20;89.50;;;;;;5122947;28;20062;-67
2024/03/23 04:21:26;;;;;;;17.98;9.73;;;10.20;88.40;;;;;;5096073;28;20032;-68
2024/03/23 04:23:52;;;;;;;15.90;9.80;;;10.30;89.00;;;;;;5118748;28;20039;-67
2024/03/23 04:26:17;;;;;;;13.48;9.27;;;10.40;98.40;;;;;;5121555;28;20031;-67
2024/03/23 04:28:43;;;;;;;17.73;9.52;;;10.30;98.10;;;;;;5115759;28;20038;-67
2024/03/23 04:31:09;;;;;;;15.70;10.27;;;;;;;;;;5123810;28;20027;-67
2024/03/23 04:33:36;;;;;;;15.23;9.98;;;10.60;98.90;;;;;;5109092;28;20074;-68
2024/03/23 04:36:02;;;;;;;12.25;8.43;;;10.40;86.50;;;;;;5103702;28;20362;-68
2024/03/23 04:38:33;;;;;;;16.27;9.88;;;10.60;97.40;;;;;;5119315;28;20220;-68
2024/03/23 04:40:59;;;;;;;17.15;11.23;;;10.50;85.70;;;;;;5124773;28;20342;-67
2024/03/23 04:43:26;;;;;;;17.92;10.52;;;10.60;96.50;;;;;;5112788;28;20036;-68
2024/03/23 04:45:52;;;;;;;15.98;9.88;;;11.00;95.50;;;;;;5124382;28;20068;-68
2024/03/23 04:48:23;;;;;;;17.92;10.48;;;10.60;84.10;;;;;;5113238;28;20060;-68
2024/03/23 04:50:49;;;;;;;15.38;10.48;;;10.60;94.90;;;;;;5111743;28;20024;-71
2024/03/23 04:53:15;;;;;;;16.45;10.93;;;10.70;86.10;;;;;;5114278;28;20035;-70
2024/03/23 04:55:42;;;;;;;15.68;10.65;;;10.70;89.20;;;;;;5121378;28;20031;-70
2024/03/23 04:58:08;;;;;;;16.80;11.00;;;;;;;;;;5126636;27;20028;-71
2024/03/23 05:00:34;;;;;;;14.18;9.48;;;;;;;;;;5101295;28;20351;-70
2024/03/23 05:03:01;;;;;;;16.20;10.15;;;10.80;94.50;;;;;;5106852;28;20332;-71
2024/03/23 05:05:27;;;;;;;12.93;8.98;;;10.90;94.90;;;;;;5105054;28;20039;-69
2024/03/23 05:07:53;;;;;;;16.25;10.05;;;10.90;82.30;;;;;;5112908;28;20030;-69
2024/03/23 05:10:18;;;;;;;16.48;9.70;;;10.90;82.20;;;;;;5104380;28;20095;-69
2024/03/23 05:12:51;;;;;;;17.70;10.05;;;11.00;96.20;;;;;;5106866;28;20114;-69
2024/03/23 05:15:17;;;;;;;15.63;9.65;;;10.90;81.80;;;;;;5120771;28;20343;-69
2024/03/23 05:17:43;;;;;;;14.68;9.35;;;11.00;81.80;;;;;;5121748;28;20031;-69
2024/03/23 05:20:09;;;;;;;12.85;9.48;;;11.10;95.60;;;;;;5111765;27;20087;-67
2024/03/23 05:22:35;;;;;;;16.33;10.40;;;11.10;95.10;;;;;;5098531;28;20096;-67
2024/03/23 05:25:04;;;;;;;17.95;9.90;;;11.00;81.30;;;;;;5106665;28;20028;-66
2024/03/23 05:27:31;;;;;;;13.75;9.82;;;11.10;94.30;;;;;;5111721;28;20099;-66
2024/03/23 05:29:57;;;;;;;15.63;10.50;;;;;;;;;;5100908;28;20032;-65
2024/03/23 05:32:24;;;;;;;27.35;10.77;;;11.20;92.90;;;;;;5118796;28;20092;-65
2024/03/23 05:34:55;;;;;;;16.67;9.60;;;11.20;93.00;;;;;;5116084;28;20350;-65
2024/03/23 05:37:21;;;;;;;16.42;10.60;;;11.20;88.80;;;;;;5119214;28;20136;-65
2024/03/23 05:39:49;;;;;;;19.15;10.65;;;11.60;85.50;;;;;;5115083;28;20042;-65
2024/03/23 05:42:16;;;;;;;15.02;9.95;;;11.30;93.00;;;;;;5116945;28;20193;-66
2024/03/23 05:44:46;;;;;;;15.43;9.90;;;11.40;78.70;;;;;;5106721;28;20035;-66
2024/03/23 05:47:16;;;;;;;13.05;9.65;;;11.40;93.40;;;;;;5104300;28;20095;-66
2024/03/23 05:49:42;;;;;;;14.15;9.90;;;11.50;79.20;;;;;;5121836;28;20654;-67
2024/03/23 05:52:10;;;;;;;16.48;10.80;;;11.60;93.70;;;;;;5114383;28;20096;-66
2024/03/23 05:54:37;;;;;;;15.48;9.88;;;;;;;;;;5123249;28;20045;-67
2024/03/23 05:57:03;;;;;;;17.42;10.00;;;11.50;92.10;;;;;;5111702;28;20222;-66
2024/03/23 05:59:31;;;;;;;19.27;10.95;;;11.70;91.90;;;;;;5111697;28;20055;-66
2024/03/23 06:01:57;;;;;;;16.58;11.40;;;;;;;;;;5116213;28;20055;-65
2024/03/23 06:04:23;;;;;;;18.85;10.50;;;11.70;88.20;;;;;;5103298;28;20036;-66
2024/03/23 06:06:49;;;;;;;14.75;10.40;;;11.70;91.30;;;;;;5097562;28;20032;-69
2024/03/23 06:09:14;;;;;;;14.80;9.85;;;11.70;85.80;;;;;;5122392;28;20028;-68
2024/03/23 06:11:40;;;;;;;15.07;11.13;;;11.80;91.10;;;;;;5123605;28;20031;-70
2024/03/23 06:14:08;;;;;;;15.88;10.48;;;11.90;88.10;;;;;;5123237;28;20095;-70
2024/03/23 06:16:34;;;;;;;17.73;10.93;;;12.10;91.50;;;;;;5116623;28;20090;-70
2024/03/23 06:18:59;;;;;;;16.33;10.75;;;12.20;92.20;;;;;;5108747;28;20306;-67
2024/03/23 06:21:25;;;;;;;15.60;10.45;;;12.20;75.70;;;;;;5106100;28;20023;-67
2024/03/23 06:23:52;;;;;;;15.13;10.65;;;12.30;92.00;;;;;;5122505;28;20034;-67
2024/03/23 06:26:19;;;;;;;17.25;11.32;;;12.40;91.10;;;;;;5109370;28;20032;-65
2024/03/23 06:28:45;;;;;;;19.35;10.82;;;12.50;90.40;;;;;;5126386;28;20043;-65
2024/03/23 06:31:10;;;;;;;17.17;11.10;;;12.40;83.50;;;;;;5125595;28;20035;-68
2024/03/23 06:33:36;;;;;;;16.02;10.30;;;12.50;81.80;;;;;;5128294;28;20045;-67
2024/03/23 06:36:03;;;;;;;16.13;11.48;;;12.90;75.60;;;;;;5123808;28;20048;-67
2024/03/23 06:38:29;;;;;;;18.77;11.50;;;12.80;89.60;;;;;;5119649;28;20095;-66
2024/03/23 06:40:54;;;;;;;17.88;11.50;;;13.00;90.50;;;;;;5125720;27;20046;-66
2024/03/23 06:43:23;;;;;;;17.17;11.35;;;13.10;89.50;;;;;;5118751;28;20344;-66
2024/03/23 06:45:54;;;;;;;18.73;11.50;;;13.00;72.00;;;;;;5114964;28;20035;-66
2024/03/23 06:48:21;;;;;;;18.25;11.57;;;13.40;87.10;;;;;;5111678;28;20359;-67
2024/03/23 06:50:47;;;;;;;19.40;11.38;;;13.30;90.50;;;;;;5119526;28;20031;-66
2024/03/23 06:53:13;;;;;;;23.40;12.73;;;13.40;87.40;;;;;;5128350;28;20035;-66
2024/03/23 06:55:39;;;;;;;17.70;11.13;;;;;;;;;;5114733;28;20082;-70
2024/03/23 06:58:05;;;;;;;18.38;11.50;;;13.30;86.90;;;;;;5116398;28;20032;-69
2024/03/23 07:00:32;;;;;;;17.15;11.07;;;13.30;80.20;;;;;;5126566;28;20036;-70
2024/03/23 07:02:58;;;;;;;17.25;12.00;;;13.70;87.40;;;;;;5118733;28;20031;-71
2024/03/23 07:05:24;;;;;;;18.88;12.27;;;13.30;80.00;;;;;;5124843;28;20284;-70
2024/03/23 07:07:50;;;;;;;17.17;11.55;;;13.30;87.50;;;;;;5106151;28;20028;-70
2024/03/23 07:10:15;;;;;;;18.92;11.80;;;13.00;74.30;;;;;;5118045;28;20031;-70
2024/03/23 07:12:43;;;;;;;17.88;11.63;;;;;;;;;;5127080;28;20051;-70
2024/03/23 07:15:09;;;;;;;17.80;11.25;;;;;;;;;;5109842;28;20032;-70
2024/03/23 07:17:35;;;;;;;17.30;12.50;;;13.30;76.90;;;;;;5120608;28;20031;-70
2024/03/23 07:20:04;;;;;;;20.52;11.35;;;13.30;80.50;;;;;;5110525;28;20343;-70
2024/03/23 07:22:32;;;;;;;16.23;11.55;;;13.40;71.50;;;;;;5126281;28;20335;-70
2024/03/23 07:25:01;;;;;;;18.20;11.73;;;13.90;90.50;;;;;;5116961;28;20028;-70
2024/03/23 07:27:27;;;;;;;;;;;13.50;72.20;;;;;;5101981;28;20242;-70
2024/03/23 07:29:52;;;;;;;17.52;11.13;;;13.80;89.70;;;;;;5112248;28;20327;-70
2024/03/23 07:32:18;;;;;;;19.30;12.18;;;13.70;71.30;;;;;;5122649;28;20066;-70
2024/03/23 07:34:44;;;;;;;16.27;11.65;;;;;;;;;;5123337;28;20043;-69
2024/03/23 07:37:10;;;;;;;16.63;11.80;;;13.10;68.80;;;;;;5105212;28;20040;-68
2024/03/23 07:39:36;;;;;;;15.70;11.20;;;14.40;84.60;;;;;;5101552;28;20691;-68
2024/03/23 07:42:02;;;;;;;17.00;10.68;;;14.90;83.90;;;;;;5111361;28;20087;-70
2024/03/23 07:44:28;;;;;;;15.30;11.02;;;;;;;;;;5102999;28;20087;-70
2024/03/23 07:46:54;;;;;;;15.80;10.77;;;14.90;85.50;;;;;;5112386;28;20027;-70
2024/03/23 07:49:19;;;;;;;15.60;11.68;;;15.00;83.60;;;;;;5103241;28;20091;-70
2024/03/23 07:51:46;;;;;;;15.55;10.82;;;15.00;64.80;;;;;;5110596;28;20023;-70
2024/03/23 07:54:12;;;;;;;16.50;9.95;;;15.00;65.50;;;;;;5114329;28;20056;-68
2024/03/23 07:56:38;;;;;;;15.55;10.57;;;14.90;82.10;;;;;;5114155;28;20023;-68
2024/03/23 07:59:03;;;;;;;15.77;10.65;;;15.00;66.30;;;;;;5104228;28;20042;-69
2024/03/23 08:01:31;;;;;;;15.98;10.50;;;14.80;81.40;;;;;;5106512;28;20087;-68
2024/03/23 08:03:57;;;;;;;15.95;10.23;;;14.90;66.00;;;;;;5108864;28;20058;-68
2024/03/23 08:06:23;;;;;;;16.10;10.63;;;14.90;81.70;;;;;;5117672;28;20036;-69
2024/03/23 08:09:02;;;;;;;17.70;10.68;;;14.70;81.30;;;;;;5108559;28;20031;-68
2024/03/23 08:11:32;;;;;;;15.20;11.32;;;14.80;81.50;;;;;;5102114;28;20077;-68
2024/03/23 08:13:58;;;;;;;16.27;10.88;;;14.50;80.60;;;;;;5101961;28;20040;-68
2024/03/23 08:16:24;;;;;;;16.70;10.80;;;14.60;81.00;;;;;;5118575;28;20035;-70
2024/03/23 08:18:53;;;;;;;20.02;11.05;;;14.70;80.90;;;;;;5110255;28;20035;-69
2024/03/23 08:21:19;;;;;;;17.50;11.90;;;14.50;80.80;;;;;;5112716;28;20039;-69
2024/03/23 08:23:45;;;;;;;15.32;10.68;;;;;;;;;;5122135;28;20118;-70
2024/03/23 08:26:17;;;;;;;19.73;11.82;;;14.80;72.40;;;;;;5111194;28;20340;-70
2024/03/23 08:28:43;;;;;;;16.27;11.80;;;15.10;81.90;;;;;;5107721;28;20035;-70
2024/03/23 08:31:12;;;;;;;14.55;11.10;;;15.20;81.00;;;;;;5101538;28;20036;-70
2024/03/23 08:33:39;;;;;;;15.20;11.63;;;15.20;81.10;;;;;;5102516;28;20020;-69
2024/03/23 08:36:12;;;;;;;15.27;10.98;;;15.20;80.70;;;;;;5119073;28;20372;-70
2024/03/23 08:38:41;;;;;;;18.17;10.73;;;15.20;80.80;;;;;;5116479;28;20024;-68
2024/03/23 08:41:08;;;;;;;17.30;11.50;;;15.20;65.00;;;;;;5108975;28;20037;-68
2024/03/23 08:43:41;;;;;;;16.83;11.55;;;15.20;65.60;;;;;;5114116;28;20035;-68
2024/03/23 08:46:12;;;;;;;14.90;10.02;;;15.50;65.00;;;;;;5113043;28;20038;-66
2024/03/23 08:48:48;;;;;;;13.55;10.10;;;15.80;64.40;;;;;;5114745;28;20196;-67
2024/03/23 08:51:16;;;;;;;14.73;10.77;;;16.20;63.50;;;;;;5119632;28;20062;-66
2024/03/23 08:53:43;;;;;;;16.98;10.30;;;16.60;62.30;;;;;;5113259;28;20049;-66
2024/03/23 08:56:09;;;;;;;15.23;10.70;;;17.00;77.20;;;;;;5112562;28;20228;-66
2024/03/23 08:58:36;;;;;;;14.55;10.63;;;16.90;60.50;;;;;;5101616;28;20136;-66
2024/03/23 09:01:14;;;;;;;15.02;9.35;;;16.90;60.60;;;;;;5111189;28;20054;-72
2024/03/23 09:03:40;;;;;;;14.05;9.48;;;17.00;60.60;;;;;;5106869;28;20091;-70
2024/03/23 09:06:14;;;;;;;15.32;10.43;;;17.10;60.50;;;;;;5112619;28;20047;-71
2024/03/23 09:08:41;;;;;;;17.55;12.23;;;17.30;60.40;;;;;;5113391;28;20379;-69
2024/03/23 09:11:15;;;;;;;13.00;10.37;;;17.40;59.90;;;;;;5109960;28;20032;-70
2024/03/23 09:13:41;;;;;;;22.55;14.82;;;17.80;76.20;;;;;;5109389;28;20030;-71
2024/03/23 09:16:09;;;;;;;15.77;12.05;;;17.20;59.10;;;;;;5118414;28;20247;-71
2024/03/23 09:18:38;;;;;;;24.08;12.25;;;18.10;59.00;;;;;;5107665;28;20065;-74
2024/03/23 09:21:10;;;;;;;15.90;12.10;;;18.60;72.70;;;;;;5091715;28;20066;-74
2024/03/23 09:23:36;;;;;;;16.02;12.23;;;18.50;58.00;;;;;;5100889;28;20032;-69
2024/03/23 09:26:06;;;;;;;45.55;21.45;;;18.70;58.50;;;;;;5111336;28;20042;-67
2024/03/23 09:28:32;;;;;;;17.30;11.60;;;18.70;58.40;;;;;;5107402;28;20036;-70
2024/03/23 09:31:05;;;;;;;15.25;9.63;;;18.20;72.50;;;;;;5111381;28;20026;-65
2024/03/23 09:33:31;;;;;;;18.77;11.50;;;18.10;57.10;;;;;;5103053;28;20082;-66
2024/03/23 09:35:57;;;;;;;15.00;9.55;;;18.10;73.00;;;;;;5114812;28;20046;-65
2024/03/23 09:38:23;;;;;;;18.38;12.45;;;17.90;57.90;;;;;;5108453;28;20032;-64
2024/03/23 09:40:53;;;;;;;17.20;11.15;;;18.00;58.00;;;;;;5119509;28;20076;-65
2024/03/23 09:43:19;;;;;;;14.93;10.75;;;18.10;57.90;;;;;;5103470;28;20320;-64
2024/03/23 09:45:46;;;;;;;13.85;8.07;;;18.30;57.60;;;;;;5107674;28;20094;-65
2024/03/23 09:48:12;;;;;;;10.40;7.90;;;18.50;57.00;;;;;;5107512;28;20028;-65
2024/03/23 09:50:42;;;;;;;11.98;7.63;;;18.60;54.30;;;;;;5104278;28;20031;-64
2024/03/23 09:53:09;;;;;;;13.20;7.78;;;18.70;55.00;;;;;;5111316;28;20099;-65
2024/03/23 09:55:35;;;;;;;17.08;7.90;;;18.70;69.70;;;;;;5101945;28;20040;-66
2024/03/23 09:58:04;;;;;;;16.70;8.80;;;19.00;53.40;;;;;;5098534;28;20093;-66
2024/03/23 10:00:31;;;;;;;13.77;8.75;;;18.90;53.90;;;;;;5106841;28;20055;-69
2024/03/23 10:03:01;;;;;;;14.48;8.27;;;19.20;54.00;;;;;;5095340;28;20051;-64
2024/03/23 10:05:27;;;;;;;11.52;8.38;;;19.30;53.80;;;;;;5099699;28;20073;-64
2024/03/23 10:07:53;;;;;;;13.10;7.15;;;19.40;53.40;;;;;;5105159;28;20032;-64
2024/03/23 10:10:21;;;;;;;14.65;8.15;;;19.60;53.30;;;;;;5100444;28;20391;-64
2024/03/23 10:12:50;;;;;;;13.68;6.95;;;19.60;52.60;;;;;;5099774;28;20020;-64
2024/03/23 10:15:25;;;;;;;14.40;9.13;;;19.60;66.70;;;;;;5110053;28;20011;-63
2024/03/23 10:17:51;;;;;;;11.70;7.55;;;19.60;52.00;;;;;;5104684;28;20031;-64
2024/03/23 10:20:22;;;;;;;14.43;7.55;;;19.70;51.60;;;;;;5107735;28;20028;-64
2024/03/23 10:22:49;;;;;;;16.42;7.63;;;19.60;50.50;;;;;;5099562;28;20077;-64
2024/03/23 10:25:15;;;;;;;10.90;7.53;;;19.60;51.00;;;;;;5107120;28;20024;-63
2024/03/23 10:27:41;;;;;;;12.77;7.45;;;19.70;51.40;;;;;;5099448;28;20024;-63
2024/03/23 10:30:11;;;;;;;13.15;7.75;;;19.90;51.30;;;;;;5099531;28;20315;-64
2024/03/23 10:32:38;;;;;;;15.07;9.02;;;20.00;50.90;;;;;;5103868;28;20020;-64
2024/03/23 10:35:22;;;;;;;12.75;8.73;;;20.10;50.30;;;;;;5115855;28;20035;-64
2024/03/23 10:37:51;;;;;;;12.73;8.80;;;20.20;49.80;;;;;;5098840;28;20074;-64
2024/03/23 10:40:17;;;;;;;12.20;8.07;;;20.30;50.60;;;;;;5107731;28;20193;-64
2024/03/23 10:42:44;;;;;;;12.38;7.35;;;20.40;51.10;;;;;;5111414;28;20027;-67
2024/03/23 10:45:10;;;;;;;13.40;7.93;;;20.70;50.70;;;;;;5101011;28;20031;-64
2024/03/23 10:47:37;;;;;;;11.43;8.00;;;20.80;49.60;;;;;;5105691;28;20047;-64
2024/03/23 10:50:06;;;;;;;11.82;7.80;;;21.10;62.90;;;;;;5110830;28;20123;-66
2024/03/23 10:52:36;;;;;;;10.35;8.73;;;20.90;49.30;;;;;;5107466;28;20073;-66
2024/03/23 10:55:07;;;;;;;8.52;5.78;;;21.00;48.70;;;;;;5098287;28;20073;-69
2024/03/23 10:57:48;;;;;;;14.15;7.05;;;21.00;49.20;;;;;;5107524;28;20083;-65
2024/03/23 11:00:14;;;;;;;11.35;7.15;;;20.90;49.10;;;;;;5109963;28;20036;-64
2024/03/23 11:02:40;;;;;;;16.13;7.90;;;21.00;49.40;;;;;;5108429;28;20028;-64
2024/03/23 11:05:46;;;;;;;9.73;6.43;;;21.00;49.10;;;;;;5107742;28;20062;-64
2024/03/23 11:08:30;;;;;;;8.20;5.15;;;21.10;48.50;;;;;;5059789;28;20025;-64
2024/03/23 11:11:19;;;;;;;14.57;5.35;;;21.10;47.80;;;;;;5110631;28;20107;-64
2024/03/23 11:13:51;;;;;;;;;;;21.40;46.10;;;;;;5103204;28;20331;-64
2024/03/23 11:16:31;;;;;;;9.50;4.97;;;21.30;45.10;;;;;;5110837;28;19908;-64
2024/03/23 11:19:34;;;;;;;8.38;5.18;;;21.20;45.60;;;;;;5114171;28;20083;-63
2024/03/23 11:22:00;;;;;;;6.85;4.97;;;21.20;45.80;;;;;;5112710;28;20141;-65
2024/03/23 11:24:26;;;;;;;8.20;5.07;;;21.30;46.30;;;;;;5113123;28;20032;-64
2024/03/23 11:26:52;;;;;;;7.05;4.13;;;21.40;45.90;;;;;;5113254;28;20045;-64
2024/03/23 11:29:18;;;;;;;13.65;4.75;;;21.40;45.30;;;;;;5109995;28;20023;-63
2024/03/23 11:31:53;;;;;;;9.45;4.57;;;21.30;45.20;;;;;;5111947;28;20067;-64
2024/03/23 11:34:20;;;;;;;9.73;4.78;;;21.30;45.10;;;;;;5115026;28;20153;-64
2024/03/23 11:36:48;;;;;;;9.55;5.00;;;21.30;44.70;;;;;;5108969;28;20052;-63
2024/03/23 11:39:20;;;;;;;9.30;4.68;;;21.30;44.60;;;;;;5103831;28;20088;-64
2024/03/23 11:41:58;;;;;;;6.60;4.63;;;21.30;45.00;;;;;;5110360;28;20100;-63
2024/03/23 11:44:26;;;;;;;8.85;5.32;;;21.40;59.20;;;;;;5098816;28;20031;-63
2024/03/23 11:46:52;;;;;;;9.65;5.03;;;21.30;45.80;;;;;;5113653;28;20063;-65
2024/03/23 11:49:26;;;;;;;7.55;4.80;;;21.30;46.10;;;;;;5102478;28;20039;-64
2024/03/23 11:51:55;;;;;;;8.77;4.18;;;21.00;57.00;;;;;;5101931;28;20034;-63
2024/03/23 11:54:25;;;;;;;9.73;5.30;;;21.10;46.20;;;;;;5104980;28;20032;-63
2024/03/23 11:57:04;;;;;;;9.02;5.18;;;;;;;;;;5104426;28;20094;-63
2024/03/23 11:59:34;;;;;;;12.45;5.22;;;20.70;46.50;;;;;;5101610;28;20040;-63
2024/03/23 12:02:05;;;;;;;6.80;4.75;;;20.70;47.00;;;;;;5101531;28;20327;-63
2024/03/23 12:04:31;;;;;;;8.35;4.75;;;;;;;;;;5108616;28;20076;-64
2024/03/23 12:07:14;;;;;;;10.73;4.97;;;20.20;59.10;;;;;;5107236;28;20314;-64
2024/03/23 12:09:40;;;;;;;12.45;5.35;;;20.20;59.10;;;;;;5103155;28;20093;-63
2024/03/23 12:12:08;;;;;;;14.63;5.15;;;20.00;59.00;;;;;;5118641;28;20051;-63
2024/03/23 12:14:34;;;;;;;8.73;5.05;;;19.80;59.50;;;;;;5120650;28;20031;-64
2024/03/23 12:17:14;;;;;;;6.22;4.00;;;19.80;59.90;;;;;;5107634;28;20051;-64
2024/03/23 12:19:41;;;;;;;9.07;4.53;;;19.70;48.30;;;;;;5101511;28;20255;-64
2024/03/23 12:22:08;;;;;;;8.77;4.95;;;19.50;61.50;;;;;;5117050;28;20031;-64
2024/03/23 12:24:35;;;;;;;8.43;5.00;;;19.70;62.50;;;;;;5113699;28;20032;-64
2024/03/23 12:27:04;;;;;;;10.93;4.68;;;19.30;47.90;;;;;;5104601;28;20036;-64
2024/03/23 12:29:34;;;;;;;11.27;5.68;;;19.40;54.40;;;;;;5101119;28;20039;-64
2024/03/23 12:32:02;;;;;;;12.68;5.82;;;19.20;48.00;;;;;;5100694;28;20031;-65
2024/03/23 12:34:30;;;;;;;9.57;4.82;;;19.30;47.90;;;;;;5107791;28;20039;-64
2024/03/23 12:36:56;;;;;;;6.63;4.30;;;19.50;60.20;;;;;;5105703;28;20047;-64
2024/03/23 12:39:22;;;;;;;9.68;5.40;;;19.20;61.00;;;;;;5101190;28;20044;-63
2024/03/23 12:41:49;;;;;;;11.20;4.78;;;19.20;60.90;;;;;;5113784;27;20036;-64
2024/03/23 12:44:15;;;;;;;7.90;4.55;;;19.20;61.30;;;;;;5093602;28;20338;-64
2024/03/23 12:46:44;;;;;;;8.85;4.88;;;19.10;48.90;;;;;;5114857;28;20268;-64